createdAt,value
2023-03-14T00:01:01.214Z,101652.00
2023-03-14T00:03:35.510Z,101654.00
2023-03-14T00:06:09.637Z,101645.00
2023-03-14T00:08:42.761Z,101643.00
2023-03-14T00:11:17.490Z,101642.00
2023-03-14T00:13:54.891Z,101644.00
2023-03-14T00:16:27.827Z,101649.00
2023-03-14T00:19:02.126Z,101648.00
2023-03-14T00:21:35.293Z,101643.00
2023-03-14T00:24:08.762Z,101642.00
2023-03-14T00:26:41.793Z,101637.00
2023-03-14T00:29:14.782Z,101637.00
2023-03-14T00:31:47.704Z,101632.00
2023-03-14T00:34:20.754Z,101638.00
2023-03-14T00:36:53.865Z,101635.00
2023-03-14T00:39:26.923Z,101642.00
2023-03-14T00:42:00.340Z,101633.00
2023-03-14T00:44:33.682Z,101637.00
2023-03-14T00:47:06.698Z,101633.00
2023-03-14T00:49:43.581Z,101641.00
2023-03-14T00:52:16.664Z,101642.00
2023-03-14T00:54:50.317Z,101648.00
2023-03-14T00:57:24.791Z,101642.00
2023-03-14T01:00:04.285Z,101645.00
2023-03-14T01:02:37.300Z,101644.00
2023-03-14T01:05:12.132Z,101653.00
2023-03-14T01:07:45.284Z,101642.00
2023-03-14T01:10:18.203Z,101646.00
2023-03-14T01:12:51.225Z,101647.00
2023-03-14T01:15:25.510Z,101647.00
2023-03-14T01:17:58.656Z,101640.00
2023-03-14T01:20:31.688Z,101646.00
2023-03-14T01:23:04.747Z,101644.00
2023-03-14T01:25:37.709Z,101653.00
2023-03-14T01:28:14.848Z,101642.00
2023-03-14T01:30:47.773Z,101646.00
2023-03-14T01:33:20.906Z,101653.00
2023-03-14T01:35:54.671Z,101637.00
2023-03-14T01:38:27.635Z,101652.00
2023-03-14T01:41:01.131Z,101649.00
2023-03-14T01:43:34.564Z,101645.00
2023-03-14T01:46:18.752Z,101643.00
2023-03-14T01:49:10.233Z,101651.00
2023-03-14T01:51:47.620Z,101648.00
2023-03-14T01:54:27.970Z,101645.00
2023-03-14T01:57:18.203Z,101645.00
2023-03-14T02:00:06.862Z,101645.00
2023-03-14T02:02:40.226Z,101631.00
2023-03-14T02:05:13.845Z,101632.00
2023-03-14T02:07:58.145Z,101639.00
2023-03-14T02:10:38.934Z,101640.00
2023-03-14T02:13:12.504Z,101639.00
2023-03-14T02:15:45.682Z,101629.00
2023-03-14T02:18:19.539Z,101637.00
2023-03-14T02:21:00.326Z,101628.00
2023-03-14T02:23:56.503Z,101628.00
2023-03-14T02:26:46.541Z,101619.00
2023-03-14T02:29:20.476Z,101627.00
2023-03-14T02:31:53.458Z,101622.00
2023-03-14T02:34:27.026Z,101609.00
2023-03-14T02:37:04.030Z,101621.00
2023-03-14T02:39:44.767Z,101620.00
2023-03-14T02:42:18.657Z,101614.00
2023-03-14T02:45:15.531Z,101619.00
2023-03-14T02:47:50.333Z,101630.00
2023-03-14T02:50:25.534Z,101603.00
2023-03-14T02:52:58.375Z,101624.00
2023-03-14T02:55:31.396Z,101618.00
2023-03-14T02:58:04.778Z,101631.00
2023-03-14T03:00:38.334Z,101636.00
2023-03-14T03:03:11.244Z,101633.00
2023-03-14T03:05:45.319Z,101624.00
2023-03-14T03:08:18.183Z,101622.00
2023-03-14T03:10:51.229Z,101630.00
2023-03-14T03:13:24.431Z,101627.00
2023-03-14T03:15:57.598Z,101622.00
2023-03-14T03:18:33.951Z,101627.00
2023-03-14T03:21:07.890Z,101623.00
2023-03-14T03:23:40.950Z,101626.00
2023-03-14T03:26:15.035Z,101633.00
2023-03-14T03:28:47.893Z,101624.00
2023-03-14T03:31:20.605Z,101638.00
2023-03-14T03:33:53.479Z,101638.00
2023-03-14T03:36:30.764Z,101639.00
2023-03-14T03:39:03.666Z,101635.00
2023-03-14T03:41:41.512Z,101638.00
2023-03-14T03:44:15.438Z,101624.00
2023-03-14T03:46:48.334Z,101624.00
2023-03-14T03:49:21.093Z,101631.00
2023-03-14T03:51:55.008Z,101629.00
2023-03-14T03:54:27.949Z,101633.00
2023-03-14T03:57:00.688Z,101642.00
2023-03-14T03:59:34.050Z,101631.00
2023-03-14T04:02:07.282Z,101637.00
2023-03-14T04:04:41.267Z,101640.00
2023-03-14T04:07:15.980Z,101636.00
2023-03-14T04:09:49.269Z,101635.00
2023-03-14T04:12:22.033Z,101644.00
2023-03-14T04:14:54.825Z,101648.00
2023-03-14T04:17:28.129Z,101649.00
2023-03-14T04:20:01.325Z,101648.00
2023-03-14T04:22:34.283Z,101652.00
2023-03-14T04:25:10.030Z,101653.00
2023-03-14T04:27:42.956Z,101657.00
2023-03-14T04:30:16.447Z,101658.00
2023-03-14T04:32:49.591Z,101671.00
2023-03-14T04:35:26.930Z,101666.00
2023-03-14T04:37:59.838Z,101664.00
2023-03-14T04:40:32.710Z,101675.00
2023-03-14T04:43:05.932Z,101676.00
2023-03-14T04:45:38.695Z,101670.00
2023-03-14T04:48:12.104Z,101670.00
2023-03-14T04:50:45.091Z,101674.00
2023-03-14T04:53:18.097Z,101671.00
2023-03-14T04:55:58.235Z,101678.00
2023-03-14T04:58:31.389Z,101678.00
2023-03-14T05:01:08.992Z,101682.00
2023-03-14T05:03:42.614Z,101674.00
2023-03-14T05:06:15.508Z,101674.00
2023-03-14T05:08:48.385Z,101677.00
2023-03-14T05:11:21.170Z,101682.00
2023-03-14T05:13:55.681Z,101681.00
2023-03-14T05:16:34.615Z,101679.00
2023-03-14T05:19:07.948Z,101686.00
2023-03-14T05:21:40.711Z,101685.00
2023-03-14T05:24:13.839Z,101697.00
2023-03-14T05:26:46.855Z,101695.00
2023-03-14T05:29:20.257Z,101690.00
2023-03-14T05:31:53.455Z,101688.00
2023-03-14T05:34:26.586Z,101689.00
2023-03-14T05:36:59.785Z,101701.00
2023-03-14T05:39:32.664Z,101696.00
2023-03-14T05:42:05.572Z,101696.00
2023-03-14T05:44:38.589Z,101700.00
2023-03-14T05:47:16.085Z,101703.00
2023-03-14T05:49:49.016Z,101704.00
2023-03-14T05:52:22.007Z,101702.00
2023-03-14T05:54:54.885Z,101696.00
2023-03-14T05:57:27.849Z,101704.00
2023-03-14T06:00:01.486Z,101712.00
2023-03-14T06:02:34.970Z,101712.00
2023-03-14T06:05:08.665Z,101717.00
2023-03-14T06:07:41.565Z,101726.00
2023-03-14T06:10:14.957Z,101725.00
2023-03-14T06:12:47.938Z,101734.00
2023-03-14T06:15:20.924Z,101728.00
2023-03-14T06:17:58.244Z,101736.00
2023-03-14T06:20:31.459Z,101739.00
2023-03-14T06:23:04.596Z,101739.00
2023-03-14T06:25:37.859Z,101737.00
2023-03-14T06:28:10.742Z,101744.00
2023-03-14T06:30:44.037Z,101742.00
2023-03-14T06:33:17.059Z,101736.00
2023-03-14T06:35:51.581Z,101745.00
2023-03-14T06:38:24.538Z,101746.00
2023-03-14T06:40:57.508Z,101742.00
2023-03-14T06:43:30.665Z,101754.00
2023-03-14T06:46:03.726Z,101747.00
2023-03-14T06:48:36.715Z,101756.00
2023-03-14T06:51:09.875Z,101753.00
2023-03-14T06:53:42.796Z,101759.00
2023-03-14T06:56:15.955Z,101760.00
2023-03-14T06:58:50.350Z,101755.00
2023-03-14T07:01:33.855Z,101749.00
2023-03-14T07:04:07.153Z,101754.00
2023-03-14T07:06:40.324Z,101764.00
2023-03-14T07:09:13.100Z,101765.00
2023-03-14T07:11:45.680Z,101763.00
2023-03-14T07:14:19.759Z,101763.00
2023-03-14T07:16:52.728Z,101764.00
2023-03-14T07:19:25.961Z,101771.00
2023-03-14T07:21:58.964Z,101769.00
2023-03-14T07:24:32.293Z,101787.00
2023-03-14T07:27:05.452Z,101788.00
2023-03-14T07:29:38.676Z,101791.00
2023-03-14T07:32:11.622Z,101790.00
2023-03-14T07:34:44.815Z,101798.00
2023-03-14T07:37:17.877Z,101797.00
2023-03-14T07:39:50.989Z,101800.00
2023-03-14T07:42:23.954Z,101802.00
2023-03-14T07:44:57.183Z,101806.00
2023-03-14T07:47:30.009Z,101807.00
2023-03-14T07:50:02.945Z,101813.00
2023-03-14T07:52:35.975Z,101823.00
2023-03-14T07:55:09.688Z,101823.00
2023-03-14T07:57:42.653Z,101823.00
2023-03-14T08:00:17.055Z,101826.00
2023-03-14T08:02:50.777Z,101807.00
2023-03-14T08:05:23.847Z,101826.00
2023-03-14T08:07:56.776Z,101831.00
2023-03-14T08:10:31.031Z,101837.00
2023-03-14T08:13:05.011Z,101842.00
2023-03-14T08:15:38.122Z,101851.00
2023-03-14T08:18:11.520Z,101852.00
2023-03-14T08:20:44.264Z,101853.00
2023-03-14T08:23:17.159Z,101848.00
2023-03-14T08:25:50.067Z,101870.00
2023-03-14T08:28:23.214Z,101874.00
2023-03-14T08:30:57.108Z,101884.00
2023-03-14T08:33:30.730Z,101875.00
2023-03-14T08:36:04.624Z,101880.00
2023-03-14T08:38:37.723Z,101880.00
2023-03-14T08:41:10.976Z,101880.00
2023-03-14T08:43:43.941Z,101875.00
2023-03-14T08:46:17.260Z,101879.00
2023-03-14T08:48:53.502Z,101898.00
2023-03-14T08:51:28.467Z,101884.00
2023-03-14T08:54:00.852Z,101885.00
2023-03-14T08:56:33.988Z,101895.00
2023-03-14T08:59:06.821Z,101902.00
2023-03-14T09:01:39.821Z,101903.00
2023-03-14T09:04:13.333Z,101907.00
2023-03-14T09:06:46.583Z,101908.00
2023-03-14T09:09:19.801Z,101911.00
2023-03-14T09:11:52.481Z,101925.00
2023-03-14T09:14:25.365Z,101920.00
2023-03-14T09:16:58.411Z,101930.00
2023-03-14T09:19:32.445Z,101932.00
2023-03-14T09:22:05.660Z,101923.00
2023-03-14T09:24:38.700Z,101920.00
2023-03-14T09:27:11.528Z,101928.00
2023-03-14T09:29:48.812Z,101926.00
2023-03-14T09:32:21.767Z,101913.00
2023-03-14T09:34:54.635Z,101908.00
2023-03-14T09:37:27.475Z,101911.00
2023-03-14T09:40:00.324Z,101912.00
2023-03-14T09:42:37.854Z,101911.00
2023-03-14T09:45:12.725Z,101906.00
2023-03-14T09:47:58.315Z,101912.00
2023-03-14T09:50:20.772Z,101916.00
2023-03-14T09:52:55.630Z,101920.00
2023-03-14T09:55:28.794Z,101924.00
2023-03-14T09:58:03.445Z,101918.00
2023-03-14T10:00:41.021Z,101921.00
2023-03-14T10:03:25.150Z,101928.00
2023-03-14T10:05:59.548Z,101924.00
2023-03-14T10:08:33.132Z,101919.00
2023-03-14T10:11:06.014Z,101919.00
2023-03-14T10:13:39.567Z,101916.00
2023-03-14T10:16:13.165Z,101910.00
2023-03-14T10:18:49.951Z,101901.00
2023-03-14T10:21:33.460Z,101908.00
2023-03-14T10:24:26.819Z,101903.00
2023-03-14T10:27:01.369Z,101910.00
2023-03-14T10:29:39.286Z,101912.00
2023-03-14T10:32:14.200Z,101916.00
2023-03-14T10:34:47.098Z,101917.00
2023-03-14T10:37:24.740Z,101920.00
2023-03-14T10:39:59.761Z,101921.00
2023-03-14T10:42:37.512Z,101925.00
2023-03-14T10:45:29.335Z,101918.00
2023-03-14T10:48:05.200Z,101925.00
2023-03-14T10:50:38.397Z,101914.00
2023-03-14T10:53:12.106Z,101923.00
2023-03-14T10:55:53.722Z,101938.00
2023-03-14T10:58:34.148Z,101935.00
2023-03-14T11:01:24.267Z,101927.00
2023-03-14T11:04:02.293Z,101925.00
2023-03-14T11:06:40.820Z,101911.00
2023-03-14T11:09:27.707Z,101907.00
2023-03-14T11:12:03.149Z,101911.00
2023-03-14T11:14:47.126Z,101906.00
2023-03-14T11:17:37.037Z,101918.00
2023-03-14T11:20:41.897Z,101923.00
2023-03-14T11:23:28.235Z,101930.00
2023-03-14T11:26:09.182Z,101948.00
2023-03-14T11:28:47.474Z,101948.00
2023-03-14T11:31:30.210Z,101928.00
2023-03-14T11:34:23.663Z,101915.00
2023-03-14T11:37:04.188Z,101915.00
2023-03-14T11:39:38.983Z,101927.00
2023-03-14T11:42:16.974Z,101933.00
2023-03-14T11:44:51.843Z,101947.00
2023-03-14T11:47:39.067Z,101939.00
2023-03-14T11:50:23.626Z,101943.00
2023-03-14T11:53:10.211Z,101958.00
2023-03-14T11:55:45.029Z,101952.00
2023-03-14T11:58:31.659Z,101934.00
2023-03-14T12:01:06.675Z,101949.00
2023-03-14T12:03:47.682Z,101943.00
2023-03-14T12:06:35.842Z,101936.00
2023-03-14T12:09:10.459Z,101952.00
2023-03-14T12:11:48.212Z,101942.00
2023-03-14T12:14:26.526Z,101938.00
2023-03-14T12:17:04.332Z,101935.00
2023-03-14T12:19:44.352Z,101940.00
2023-03-14T12:22:29.412Z,101947.00
2023-03-14T12:25:13.588Z,101951.00
2023-03-14T12:27:51.767Z,101945.00
2023-03-14T12:30:42.369Z,101949.00
2023-03-14T12:33:26.086Z,101939.00
2023-03-14T12:36:03.881Z,101951.00
2023-03-14T12:39:01.240Z,101955.00
2023-03-14T12:41:46.468Z,101966.00
2023-03-14T12:44:37.000Z,101963.00
2023-03-14T12:47:27.161Z,101960.00
2023-03-14T12:50:00.412Z,101948.00
2023-03-14T12:52:38.188Z,101951.00
2023-03-14T12:55:18.918Z,101945.00
2023-03-14T12:58:15.057Z,101948.00
2023-03-14T13:00:48.572Z,101951.00
2023-03-14T13:03:27.518Z,101945.00
2023-03-14T13:06:02.409Z,101944.00
2023-03-14T13:08:50.285Z,101942.00
2023-03-14T13:11:24.272Z,101942.00
2023-03-14T13:14:05.812Z,101942.00
2023-03-14T13:16:40.353Z,101946.00
2023-03-14T13:19:30.451Z,101941.00
2023-03-14T13:22:08.102Z,101949.00
2023-03-14T13:24:41.277Z,101947.00
2023-03-14T13:27:26.201Z,101944.00
2023-03-14T13:29:59.140Z,101950.00
2023-03-14T13:32:35.351Z,101946.00
2023-03-14T13:35:09.256Z,101942.00
2023-03-14T13:37:43.941Z,101942.00
2023-03-14T13:40:24.744Z,101941.00
2023-03-14T13:43:05.448Z,101933.00
2023-03-14T13:45:40.153Z,101934.00
2023-03-14T13:48:14.761Z,101930.00
2023-03-14T13:50:55.603Z,101931.00
2023-03-14T13:53:28.598Z,101932.00
2023-03-14T13:56:01.466Z,101929.00
2023-03-14T13:58:38.700Z,101931.00
2023-03-14T14:01:25.841Z,101920.00
2023-03-14T14:04:00.687Z,101918.00
2023-03-14T14:06:44.133Z,101924.00
2023-03-14T14:09:22.046Z,101923.00
2023-03-14T14:12:16.155Z,101928.00
2023-03-14T14:14:46.005Z,101912.00
2023-03-14T14:17:20.644Z,101905.00
2023-03-14T14:19:56.058Z,101913.00
2023-03-14T14:22:29.905Z,101910.00
2023-03-14T14:25:06.282Z,101917.00
2023-03-14T14:27:49.502Z,101904.00
2023-03-14T14:30:27.554Z,101904.00
2023-03-14T14:33:02.674Z,101910.00
2023-03-14T14:35:41.722Z,101903.00
2023-03-14T14:38:19.733Z,101912.00
2023-03-14T14:40:54.749Z,101910.00
2023-03-14T14:43:32.515Z,101909.00
2023-03-14T14:46:08.870Z,101912.00
2023-03-14T14:48:42.168Z,101909.00
2023-03-14T14:51:15.153Z,101914.00
2023-03-14T14:53:50.113Z,101906.00
2023-03-14T14:56:25.290Z,101897.00
2023-03-14T14:59:03.119Z,101900.00
2023-03-14T15:01:40.425Z,101904.00
2023-03-14T15:04:17.705Z,101904.00
2023-03-14T15:06:52.743Z,101901.00
2023-03-14T15:09:26.320Z,101896.00
2023-03-14T15:11:59.521Z,101897.00
2023-03-14T15:14:32.473Z,101907.00
2023-03-14T15:17:05.446Z,101895.00
2023-03-14T15:19:38.664Z,101894.00
2023-03-14T15:22:18.371Z,101895.00
2023-03-14T15:24:51.230Z,101897.00
2023-03-14T15:27:23.999Z,101900.00
2023-03-14T15:29:57.197Z,101911.00
2023-03-14T15:32:31.242Z,101909.00
2023-03-14T15:35:03.996Z,101911.00
2023-03-14T15:37:37.599Z,101906.00
2023-03-14T15:40:12.254Z,101909.00
2023-03-14T15:42:45.975Z,101922.00
2023-03-14T15:45:18.731Z,101921.00
2023-03-14T15:47:51.735Z,101920.00
2023-03-14T15:50:24.668Z,101915.00
2023-03-14T15:52:58.536Z,101919.00
2023-03-14T15:55:31.514Z,101914.00
2023-03-14T15:58:05.337Z,101916.00
2023-03-14T16:00:39.303Z,101921.00
2023-03-14T16:03:13.250Z,101907.00
2023-03-14T16:05:46.200Z,101916.00
2023-03-14T16:08:19.339Z,101905.00
2023-03-14T16:10:52.871Z,101904.00
2023-03-14T16:13:26.110Z,101910.00
2023-03-14T16:16:03.221Z,101904.00
2023-03-14T16:18:37.855Z,101899.00
2023-03-14T16:21:18.806Z,101895.00
2023-03-14T16:23:51.842Z,101904.00
2023-03-14T16:26:25.330Z,101920.00
2023-03-14T16:28:58.395Z,101914.00
2023-03-14T16:31:31.304Z,101918.00
2023-03-14T16:34:07.894Z,101917.00
2023-03-14T16:36:40.935Z,101924.00
2023-03-14T16:39:13.908Z,101926.00
2023-03-14T16:41:46.942Z,101915.00
2023-03-14T16:44:20.006Z,101915.00
2023-03-14T16:46:53.300Z,101919.00
2023-03-14T16:49:26.122Z,101922.00
2023-03-14T16:51:59.012Z,101927.00
2023-03-14T16:54:36.446Z,101933.00
2023-03-14T16:57:09.575Z,101927.00
2023-03-14T16:59:42.608Z,101931.00
2023-03-14T17:02:15.521Z,101927.00
2023-03-14T17:04:48.394Z,101920.00
2023-03-14T17:07:21.210Z,101929.00
2023-03-14T17:09:55.554Z,101928.00
2023-03-14T17:12:28.830Z,101935.00
2023-03-14T17:15:03.239Z,101933.00
2023-03-14T17:17:36.345Z,101925.00
2023-03-14T17:20:13.907Z,101918.00
2023-03-14T17:22:46.926Z,101930.00
2023-03-14T17:25:19.866Z,101937.00
2023-03-14T17:27:52.838Z,101939.00
2023-03-14T17:30:25.525Z,101936.00
2023-03-14T17:32:58.856Z,101945.00
2023-03-14T17:35:31.828Z,101948.00
2023-03-14T17:38:05.019Z,101953.00
2023-03-14T17:40:37.904Z,101952.00
2023-03-14T17:43:10.818Z,101955.00
2023-03-14T17:45:44.969Z,101942.00
2023-03-14T17:48:17.957Z,101952.00
2023-03-14T17:50:53.028Z,101949.00
2023-03-14T17:53:26.147Z,101957.00
2023-03-14T17:56:01.592Z,101944.00
2023-03-14T17:58:36.644Z,101951.00
2023-03-14T18:01:20.690Z,101948.00
2023-03-14T18:03:54.932Z,101953.00
2023-03-14T18:06:29.860Z,101959.00
2023-03-14T18:09:03.321Z,101973.00
2023-03-14T18:11:37.203Z,101976.00
2023-03-14T18:14:11.084Z,101979.00
2023-03-14T18:16:45.484Z,101983.00
2023-03-14T18:19:18.944Z,101985.00
2023-03-14T18:21:53.017Z,102001.00
2023-03-14T18:24:28.819Z,101996.00
2023-03-14T18:27:01.089Z,101988.00
2023-03-14T18:29:34.158Z,101999.00
2023-03-14T18:32:08.418Z,102007.00
2023-03-14T18:34:41.566Z,102011.00
2023-03-14T18:37:14.479Z,102010.00
2023-03-14T18:39:47.539Z,102021.00
2023-03-14T18:42:20.514Z,102027.00
2023-03-14T18:44:53.801Z,102024.00
2023-03-14T18:47:27.986Z,102040.00
2023-03-14T18:50:01.759Z,102028.00
2023-03-14T18:52:34.921Z,102038.00
2023-03-14T18:55:08.156Z,102039.00
2023-03-14T18:57:41.135Z,102031.00
2023-03-14T19:00:15.788Z,102036.00
2023-03-14T19:02:48.975Z,102028.00
2023-03-14T19:05:22.033Z,102025.00
2023-03-14T19:07:54.980Z,102026.00
2023-03-14T19:10:28.386Z,102040.00
2023-03-14T19:13:01.663Z,102033.00
2023-03-14T19:15:37.467Z,102043.00
2023-03-14T19:18:11.785Z,102042.00
2023-03-14T19:20:49.686Z,102036.00
2023-03-14T19:23:23.926Z,102043.00
2023-03-14T19:25:57.616Z,102031.00
2023-03-14T19:28:31.431Z,102033.00
2023-03-14T19:31:06.114Z,102037.00
2023-03-14T19:33:39.514Z,102024.00
2023-03-14T19:36:14.033Z,102025.00
2023-03-14T19:38:46.871Z,102022.00
2023-03-14T19:41:19.770Z,102029.00
2023-03-14T19:43:53.040Z,102037.00
2023-03-14T19:46:26.984Z,102042.00
2023-03-14T19:48:59.996Z,102033.00
2023-03-14T19:51:33.410Z,102037.00
2023-03-14T19:54:06.914Z,102041.00
2023-03-14T19:56:40.483Z,102045.00
2023-03-14T19:59:13.435Z,102048.00
2023-03-14T20:01:47.520Z,102046.00
2023-03-14T20:04:20.622Z,102043.00
2023-03-14T20:06:54.618Z,102045.00
2023-03-14T20:09:27.962Z,102033.00
2023-03-14T20:12:00.901Z,102041.00
2023-03-14T20:14:34.202Z,102046.00
2023-03-14T20:17:07.582Z,102052.00
2023-03-14T20:19:43.853Z,102058.00
2023-03-14T20:22:17.033Z,102060.00
2023-03-14T20:24:50.081Z,102065.00
2023-03-14T20:27:23.676Z,102060.00
2023-03-14T20:29:58.738Z,102063.00
2023-03-14T20:32:31.687Z,102064.00
2023-03-14T20:35:04.731Z,102065.00
2023-03-14T20:37:41.982Z,102052.00
2023-03-14T20:40:16.040Z,102059.00
2023-03-14T20:42:49.052Z,102056.00
2023-03-14T20:45:40.764Z,102058.00
2023-03-14T20:48:12.152Z,102062.00
2023-03-14T20:50:45.249Z,102053.00
2023-03-14T20:53:18.384Z,102050.00
2023-03-14T20:55:51.728Z,102051.00
2023-03-14T20:58:24.759Z,102050.00
2023-03-14T21:00:58.868Z,102060.00
2023-03-14T21:03:31.983Z,102068.00
2023-03-14T21:06:06.237Z,102066.00
2023-03-14T21:08:39.405Z,102060.00
2023-03-14T21:11:12.578Z,102056.00
2023-03-14T21:13:45.547Z,102049.00
2023-03-14T21:16:18.952Z,102055.00
2023-03-14T21:18:52.267Z,102059.00
2023-03-14T21:21:25.494Z,102052.00
2023-03-14T21:24:02.683Z,102049.00
2023-03-14T21:26:35.756Z,102054.00
2023-03-14T21:29:08.801Z,102054.00
2023-03-14T21:31:41.998Z,102062.00
2023-03-14T21:34:14.899Z,102054.00
2023-03-14T21:36:48.990Z,102065.00
2023-03-14T21:39:22.201Z,102050.00
2023-03-14T21:41:55.157Z,102057.00
2023-03-14T21:44:28.462Z,102051.00
2023-03-14T21:47:04.664Z,102060.00
2023-03-14T21:49:37.961Z,102055.00
2023-03-14T21:52:15.909Z,102060.00
2023-03-14T21:54:49.143Z,102056.00
2023-03-14T21:57:26.636Z,102063.00
2023-03-14T21:59:59.706Z,102063.00
2023-03-14T22:02:37.074Z,102063.00
2023-03-14T22:05:10.917Z,102057.00
2023-03-14T22:07:44.169Z,102061.00
2023-03-14T22:10:18.468Z,102048.00
2023-03-14T22:12:51.608Z,102054.00
2023-03-14T22:15:24.673Z,102052.00
2023-03-14T22:17:58.242Z,102055.00
2023-03-14T22:20:31.222Z,102053.00
2023-03-14T22:23:04.378Z,102052.00
2023-03-14T22:25:37.426Z,102064.00
2023-03-14T22:28:10.575Z,102057.00
2023-03-14T22:30:43.604Z,102055.00
2023-03-14T22:33:16.930Z,102038.00
2023-03-14T22:35:53.575Z,102043.00
2023-03-14T22:38:26.595Z,102049.00
2023-03-14T22:41:01.568Z,102038.00
2023-03-14T22:43:34.937Z,102039.00
2023-03-14T22:46:10.129Z,102031.00
2023-03-14T22:48:43.234Z,102047.00
2023-03-14T22:51:16.777Z,102044.00
2023-03-14T22:53:50.025Z,102036.00
2023-03-14T22:56:23.081Z,102031.00
2023-03-14T22:58:55.988Z,102040.00
2023-03-14T23:01:29.080Z,102030.00
2023-03-14T23:04:02.316Z,102037.00
2023-03-14T23:06:35.452Z,102027.00
2023-03-14T23:09:08.594Z,102022.00
2023-03-14T23:11:41.655Z,102025.00
2023-03-14T23:14:14.771Z,102029.00
2023-03-14T23:16:49.344Z,102018.00
2023-03-14T23:19:24.241Z,102017.00
2023-03-14T23:22:04.963Z,102019.00
2023-03-14T23:24:37.404Z,102019.00
2023-03-14T23:27:10.332Z,102014.00
2023-03-14T23:29:43.224Z,102014.00
2023-03-14T23:32:17.466Z,102004.00
2023-03-14T23:34:50.317Z,102006.00
2023-03-14T23:37:24.771Z,102010.00
2023-03-14T23:39:57.873Z,101998.00
2023-03-14T23:42:30.750Z,101987.00
2023-03-14T23:45:03.633Z,101990.00
2023-03-14T23:47:36.612Z,101989.00
2023-03-14T23:50:14.917Z,101978.00
2023-03-14T23:52:47.908Z,101985.00
2023-03-14T23:55:21.169Z,101974.00
2023-03-14T23:57:54.131Z,101971.00
